createdAt,value
2023-04-30T00:02:02.942Z,6.65
2023-04-30T00:04:29.684Z,6.90
2023-04-30T00:06:56.703Z,7.28
2023-04-30T00:09:23.409Z,5.97
2023-04-30T00:11:50.492Z,7.05
2023-04-30T00:14:17.235Z,12.05
2023-04-30T00:16:43.990Z,9.48
2023-04-30T00:19:10.921Z,6.38
2023-04-30T00:21:37.708Z,7.53
2023-04-30T00:24:05.255Z,11.35
2023-04-30T00:26:31.959Z,7.78
2023-04-30T00:28:58.795Z,7.80
2023-04-30T00:31:25.608Z,7.75
2023-04-30T00:33:52.332Z,8.57
2023-04-30T00:36:19.400Z,8.18
2023-04-30T00:38:46.140Z,9.65
2023-04-30T00:41:13.697Z,7.97
2023-04-30T00:43:40.434Z,7.72
2023-04-30T00:46:07.206Z,8.07
2023-04-30T00:48:34.237Z,9.18
2023-04-30T00:51:03.241Z,8.80
2023-04-30T00:53:30.306Z,7.10
2023-04-30T00:55:57.710Z,10.38
2023-04-30T00:58:26.138Z,9.55
2023-04-30T01:00:53.363Z,7.40
2023-04-30T01:03:20.606Z,5.88
2023-04-30T01:05:47.384Z,7.57
2023-04-30T01:08:14.602Z,3.72
2023-04-30T01:10:46.443Z,6.22
2023-04-30T01:13:19.463Z,3.40
2023-04-30T01:15:52.142Z,3.90
2023-04-30T01:18:28.992Z,3.05
2023-04-30T01:21:00.153Z,2.33
2023-04-30T01:23:38.236Z,2.55
2023-04-30T01:26:15.804Z,2.50
2023-04-30T01:28:46.504Z,2.03
2023-04-30T01:31:19.167Z,2.47
2023-04-30T01:33:45.955Z,1.95
2023-04-30T01:36:34.072Z,1.95
2023-04-30T01:39:21.318Z,1.95
2023-04-30T01:42:11.356Z,1.77
2023-04-30T01:44:55.460Z,1.30
2023-04-30T01:47:28.458Z,1.80
2023-04-30T01:50:06.268Z,1.98
2023-04-30T01:52:42.272Z,1.10
2023-04-30T01:55:12.683Z,23.05
2023-04-30T02:00:11.018Z,1.20
2023-04-30T02:02:40.361Z,1.38
2023-04-30T02:05:07.773Z,0.95
2023-04-30T02:07:42.639Z,1.58
2023-04-30T02:10:10.224Z,0.90
2023-04-30T02:12:37.056Z,0.80
2023-04-30T02:15:05.137Z,1.40
2023-04-30T02:17:32.593Z,0.70
2023-04-30T02:19:59.772Z,0.98
2023-04-30T02:22:26.857Z,4.22
2023-04-30T02:24:55.770Z,1.45
2023-04-30T02:27:23.695Z,1.38
2023-04-30T02:29:50.488Z,0.70
2023-04-30T02:32:17.887Z,0.90
2023-04-30T02:34:45.022Z,1.50
2023-04-30T02:37:11.890Z,1.73
2023-04-30T02:39:38.569Z,1.27
2023-04-30T02:42:06.940Z,1.08
2023-04-30T02:44:34.145Z,1.42
2023-04-30T02:47:02.580Z,1.17
2023-04-30T02:49:29.753Z,1.25
2023-04-30T02:51:56.460Z,2.13
2023-04-30T02:54:23.277Z,1.75
2023-04-30T02:56:50.029Z,0.93
2023-04-30T02:59:16.772Z,1.20
2023-04-30T03:01:43.543Z,1.38
2023-04-30T03:04:10.547Z,0.45
2023-04-30T03:06:37.271Z,1.63
2023-04-30T03:09:04.080Z,1.30
2023-04-30T03:11:30.922Z,0.43
2023-04-30T03:13:57.730Z,0.85
2023-04-30T03:16:24.457Z,1.80
2023-04-30T03:18:51.372Z,0.88
2023-04-30T03:21:18.269Z,0.82
2023-04-30T03:23:45.023Z,1.40
2023-04-30T03:26:12.485Z,0.95
2023-04-30T03:28:39.209Z,1.27
2023-04-30T03:31:05.990Z,0.88
2023-04-30T03:33:33.416Z,1.00
2023-04-30T03:36:00.472Z,0.93
2023-04-30T03:38:27.276Z,0.90
2023-04-30T03:40:54.045Z,0.25
2023-04-30T03:43:21.056Z,0.88
2023-04-30T03:45:47.993Z,1.23
2023-04-30T03:48:14.816Z,2.05
2023-04-30T03:50:41.572Z,1.15
2023-04-30T03:53:08.304Z,1.35
2023-04-30T03:55:35.762Z,0.93
2023-04-30T03:58:02.916Z,1.52
2023-04-30T04:00:29.642Z,0.93
2023-04-30T04:02:58.302Z,1.70
2023-04-30T04:05:25.199Z,1.08
2023-04-30T04:07:51.899Z,0.88
2023-04-30T04:10:18.878Z,1.02
2023-04-30T04:12:46.530Z,0.95
2023-04-30T04:15:13.750Z,0.70
2023-04-30T04:17:40.634Z,1.40
2023-04-30T04:20:08.488Z,0.30
2023-04-30T04:22:36.500Z,0.80
2023-04-30T04:25:03.277Z,3.42
2023-04-30T04:27:32.378Z,1.00
2023-04-30T04:29:59.067Z,0.70
2023-04-30T04:32:26.095Z,1.00
2023-04-30T04:34:54.443Z,0.80
2023-04-30T04:37:21.343Z,0.80
2023-04-30T04:39:48.086Z,0.77
2023-04-30T04:42:18.154Z,1.00
2023-04-30T04:44:44.934Z,0.70
2023-04-30T04:47:13.018Z,0.80
2023-04-30T04:49:40.178Z,0.85
2023-04-30T04:52:07.273Z,0.88
2023-04-30T04:54:34.667Z,1.05
2023-04-30T04:57:03.234Z,1.20
2023-04-30T04:59:30.128Z,0.88
2023-04-30T05:01:56.963Z,1.30
2023-04-30T05:04:23.677Z,0.85
2023-04-30T05:06:50.508Z,0.85
2023-04-30T05:09:17.718Z,0.95
2023-04-30T05:11:46.360Z,0.95
2023-04-30T05:14:13.071Z,0.85
2023-04-30T05:16:40.407Z,1.00
2023-04-30T05:19:09.895Z,0.70
2023-04-30T05:21:37.193Z,0.85
2023-04-30T05:24:04.489Z,0.95
2023-04-30T05:26:31.212Z,1.60
2023-04-30T05:28:58.115Z,0.77
2023-04-30T05:31:24.882Z,0.90
2023-04-30T05:33:52.205Z,0.80
2023-04-30T05:36:18.940Z,0.65
2023-04-30T05:38:45.666Z,0.75
2023-04-30T05:41:13.364Z,0.70
2023-04-30T05:43:40.076Z,0.85
2023-04-30T05:46:06.962Z,2.05
2023-04-30T05:48:33.779Z,0.90
2023-04-30T05:51:00.499Z,0.80
2023-04-30T05:53:28.436Z,1.20
2023-04-30T05:55:55.169Z,0.65
2023-04-30T05:58:21.902Z,1.17
2023-04-30T06:00:52.291Z,0.30
2023-04-30T06:05:47.440Z,1.00
2023-04-30T06:08:14.293Z,0.90
2023-04-30T06:10:41.029Z,1.70
2023-04-30T06:13:07.754Z,0.82
2023-04-30T06:15:34.510Z,0.60
2023-04-30T06:18:01.392Z,1.05
2023-04-30T06:20:28.309Z,2.63
2023-04-30T06:22:55.411Z,1.08
2023-04-30T06:25:22.381Z,1.42
2023-04-30T06:27:49.137Z,1.10
2023-04-30T06:30:16.104Z,0.80
2023-04-30T06:32:42.833Z,0.88
2023-04-30T06:35:09.810Z,1.00
2023-04-30T06:37:38.272Z,0.77
2023-04-30T06:40:06.688Z,1.42
2023-04-30T06:42:36.822Z,1.08
2023-04-30T06:45:04.292Z,1.60
2023-04-30T06:47:38.554Z,1.15
2023-04-30T06:50:05.899Z,1.17
2023-04-30T06:52:32.630Z,1.27
2023-04-30T06:54:59.299Z,0.70
2023-04-30T06:57:26.020Z,1.20
2023-04-30T06:59:53.138Z,1.35
2023-04-30T07:02:22.025Z,0.77
2023-04-30T07:04:49.598Z,0.68
2023-04-30T07:07:16.401Z,1.48
2023-04-30T07:09:43.107Z,0.98
2023-04-30T07:12:11.313Z,2.88
2023-04-30T07:14:38.044Z,0.77
2023-04-30T07:17:04.859Z,0.95
2023-04-30T07:19:32.757Z,0.70
2023-04-30T07:21:59.581Z,0.95
2023-04-30T07:24:26.368Z,0.98
2023-04-30T07:26:53.129Z,0.45
2023-04-30T07:29:20.104Z,1.35
2023-04-30T07:31:46.992Z,0.95
2023-04-30T07:34:13.742Z,1.00
2023-04-30T07:36:40.608Z,0.73
2023-04-30T07:39:08.211Z,2.15
2023-04-30T07:41:35.012Z,1.02
2023-04-30T07:44:01.740Z,0.98
2023-04-30T07:46:28.546Z,0.10
2023-04-30T07:48:55.354Z,0.85
2023-04-30T07:51:22.633Z,1.08
2023-04-30T07:53:49.333Z,1.33
2023-04-30T07:56:16.195Z,0.70
2023-04-30T07:58:43.258Z,1.20
2023-04-30T08:01:10.000Z,1.05
2023-04-30T08:03:36.891Z,0.65
2023-04-30T08:06:05.262Z,0.82
2023-04-30T08:08:31.978Z,0.70
2023-04-30T08:10:58.740Z,3.25
2023-04-30T08:13:25.501Z,0.65
2023-04-30T08:15:52.206Z,0.30
2023-04-30T08:18:18.947Z,0.68
2023-04-30T08:20:45.764Z,0.60
2023-04-30T08:23:12.491Z,0.60
2023-04-30T08:25:39.195Z,0.93
2023-04-30T08:28:07.171Z,0.50
2023-04-30T08:30:34.000Z,1.33
2023-04-30T08:33:00.741Z,0.85
2023-04-30T08:35:29.829Z,1.00
2023-04-30T08:37:56.534Z,0.10
2023-04-30T08:40:33.724Z,0.90
2023-04-30T08:43:11.790Z,1.25
2023-04-30T08:45:38.532Z,0.88
2023-04-30T08:48:06.019Z,0.50
2023-04-30T08:50:32.799Z,0.73
2023-04-30T08:52:59.644Z,0.10
2023-04-30T08:55:30.156Z,0.50
2023-04-30T08:57:56.864Z,1.35
2023-04-30T09:00:23.629Z,0.70
2023-04-30T09:02:50.831Z,0.50
2023-04-30T09:05:17.582Z,1.25
2023-04-30T09:08:01.062Z,0.80
2023-04-30T09:10:32.824Z,1.15
2023-04-30T09:13:02.125Z,0.60
2023-04-30T09:15:29.933Z,1.27
2023-04-30T09:18:21.912Z,0.77
2023-04-30T09:21:01.333Z,1.10
2023-04-30T09:23:28.571Z,0.65
2023-04-30T09:25:55.634Z,0.88
2023-04-30T09:28:28.859Z,0.65
2023-04-30T09:30:59.409Z,1.45
2023-04-30T09:33:26.538Z,0.32
2023-04-30T09:35:53.283Z,0.52
2023-04-30T09:38:27.093Z,0.65
2023-04-30T09:40:53.833Z,0.70
2023-04-30T09:43:20.572Z,0.43
2023-04-30T09:45:49.914Z,1.15
2023-04-30T09:48:18.041Z,0.85
2023-04-30T09:50:48.012Z,0.68
2023-04-30T09:53:18.103Z,1.65
2023-04-30T09:58:12.704Z,2.08
2023-04-30T10:00:40.127Z,0.75
2023-04-30T10:03:11.383Z,0.70
2023-04-30T10:05:41.386Z,1.10
2023-04-30T10:08:14.279Z,0.55
2023-04-30T10:10:41.755Z,0.20
2023-04-30T10:13:11.277Z,0.98
2023-04-30T10:15:46.274Z,0.65
2023-04-30T10:18:26.767Z,0.28
2023-04-30T10:20:54.477Z,0.45
2023-04-30T10:23:22.384Z,0.50
2023-04-30T10:25:49.510Z,0.95
2023-04-30T10:28:16.385Z,0.63
2023-04-30T10:30:43.864Z,0.70
2023-04-30T10:33:23.609Z,0.70
2023-04-30T10:35:57.791Z,0.38
2023-04-30T10:38:29.940Z,0.65
2023-04-30T10:41:04.043Z,0.52
2023-04-30T10:43:31.407Z,0.60
2023-04-30T10:45:58.953Z,0.55
2023-04-30T10:48:26.983Z,0.52
2023-04-30T10:50:56.712Z,0.73
2023-04-30T10:53:26.467Z,0.95
2023-04-30T10:56:09.334Z,0.43
2023-04-30T10:58:38.936Z,0.77
2023-04-30T11:01:12.247Z,1.33
2023-04-30T11:03:42.550Z,0.57
2023-04-30T11:08:43.023Z,0.40
2023-04-30T11:11:11.008Z,0.57
2023-04-30T11:13:48.697Z,0.95
2023-04-30T11:16:20.359Z,1.35
2023-04-30T11:18:47.475Z,0.30
2023-04-30T11:21:14.355Z,0.60
2023-04-30T11:23:43.396Z,0.47
2023-04-30T11:26:10.545Z,0.43
2023-04-30T11:28:38.340Z,0.73
2023-04-30T11:31:05.732Z,1.02
2023-04-30T11:33:33.735Z,0.68
2023-04-30T11:36:01.635Z,2.05
2023-04-30T11:38:35.164Z,0.50
2023-04-30T11:41:02.733Z,0.40
2023-04-30T11:43:31.522Z,0.93
2023-04-30T11:46:12.201Z,0.55
2023-04-30T11:48:40.778Z,0.30
2023-04-30T11:51:24.736Z,0.30
2023-04-30T11:53:52.900Z,0.40
2023-04-30T11:56:24.973Z,1.05
2023-04-30T11:58:52.927Z,0.25
2023-04-30T12:01:21.320Z,0.57
2023-04-30T12:03:50.898Z,0.60
2023-04-30T12:06:25.170Z,0.50
2023-04-30T12:08:56.357Z,0.52
2023-04-30T12:11:26.005Z,0.60
2023-04-30T12:13:57.594Z,0.63
2023-04-30T12:16:25.856Z,0.35
2023-04-30T12:18:53.070Z,0.45
2023-04-30T12:21:21.697Z,0.40
2023-04-30T12:23:48.558Z,0.55
2023-04-30T12:26:15.296Z,0.75
2023-04-30T12:28:41.992Z,0.90
2023-04-30T12:31:08.845Z,0.13
2023-04-30T12:33:37.373Z,0.40
2023-04-30T12:36:04.313Z,0.90
2023-04-30T12:38:31.117Z,0.50
2023-04-30T12:40:58.001Z,0.73
2023-04-30T12:43:24.716Z,0.50
2023-04-30T12:45:53.376Z,0.65
2023-04-30T12:48:21.981Z,0.63
2023-04-30T12:51:10.272Z,0.95
2023-04-30T12:53:46.079Z,1.23
2023-04-30T12:56:17.131Z,0.40
2023-04-30T12:58:51.218Z,0.70
2023-04-30T13:01:20.616Z,0.40
2023-04-30T13:03:47.751Z,0.60
2023-04-30T13:06:14.612Z,0.43
2023-04-30T13:08:57.209Z,0.55
2023-04-30T13:11:26.648Z,1.13
2023-04-30T13:13:55.670Z,0.55
2023-04-30T13:16:23.198Z,0.50
2023-04-30T13:18:49.938Z,0.45
2023-04-30T13:21:16.651Z,0.50
2023-04-30T13:23:51.784Z,0.40
2023-04-30T13:26:21.542Z,0.50
2023-04-30T13:28:48.242Z,0.77
2023-04-30T13:31:15.047Z,0.55
2023-04-30T13:33:41.839Z,0.38
2023-04-30T13:36:08.542Z,0.40
2023-04-30T13:38:35.281Z,0.20
2023-04-30T13:41:01.986Z,0.40
2023-04-30T13:43:28.645Z,0.40
2023-04-30T13:45:55.437Z,0.75
2023-04-30T13:48:22.245Z,0.38
2023-04-30T13:50:49.040Z,0.50
2023-04-30T13:53:16.288Z,0.40
2023-04-30T13:55:43.022Z,0.70
2023-04-30T13:58:09.813Z,0.70
2023-04-30T14:00:36.568Z,0.75
2023-04-30T14:03:04.515Z,4.65
2023-04-30T14:05:33.130Z,0.40
2023-04-30T14:08:00.217Z,0.30
2023-04-30T14:10:27.270Z,0.40
2023-04-30T14:12:54.094Z,0.60
2023-04-30T14:15:21.513Z,0.40
2023-04-30T14:17:48.651Z,1.10
2023-04-30T14:20:15.465Z,0.50
2023-04-30T14:22:42.431Z,0.65
2023-04-30T14:25:09.764Z,1.30
2023-04-30T14:27:37.213Z,0.57
2023-04-30T14:30:04.456Z,1.50
2023-04-30T14:32:31.306Z,0.60
2023-04-30T14:34:58.136Z,0.70
2023-04-30T14:37:28.004Z,0.80
2023-04-30T14:39:54.977Z,1.13
2023-04-30T14:42:21.864Z,1.42
2023-04-30T14:44:48.544Z,2.20
2023-04-30T14:47:15.266Z,0.32
2023-04-30T14:49:41.998Z,0.52
2023-04-30T14:52:09.155Z,0.80
2023-04-30T14:54:35.946Z,0.50
2023-04-30T14:57:04.275Z,0.40
2023-04-30T14:59:31.692Z,0.80
2023-04-30T15:01:58.677Z,0.95
2023-04-30T15:04:25.475Z,1.45
2023-04-30T15:06:52.375Z,0.40
2023-04-30T15:09:19.417Z,1.08
2023-04-30T15:11:46.177Z,1.15
2023-04-30T15:14:12.955Z,0.47
2023-04-30T15:16:40.324Z,0.38
2023-04-30T15:19:07.809Z,0.40
2023-04-30T15:21:34.636Z,0.45
2023-04-30T15:24:01.482Z,1.17
2023-04-30T15:26:29.009Z,0.60
2023-04-30T15:28:57.039Z,0.38
2023-04-30T15:31:24.405Z,0.22
2023-04-30T15:33:51.955Z,0.63
2023-04-30T15:36:19.289Z,0.40
2023-04-30T15:38:46.079Z,0.70
2023-04-30T15:41:12.766Z,0.77
2023-04-30T15:43:39.701Z,0.55
2023-04-30T15:46:06.478Z,0.50
2023-04-30T15:48:33.286Z,0.65
2023-04-30T15:51:00.310Z,0.65
2023-04-30T15:53:27.043Z,0.63
2023-04-30T15:55:54.096Z,1.63
2023-04-30T15:58:20.855Z,0.70
2023-04-30T16:00:47.740Z,0.93
2023-04-30T16:03:14.554Z,0.13
2023-04-30T16:05:41.944Z,0.70
2023-04-30T16:08:12.373Z,1.73
2023-04-30T16:10:39.223Z,0.60
2023-04-30T16:13:05.958Z,1.20
2023-04-30T16:15:33.206Z,1.27
2023-04-30T16:17:59.996Z,0.85
2023-04-30T16:20:27.523Z,0.82
2023-04-30T16:22:54.975Z,0.70
2023-04-30T16:25:22.366Z,0.60
2023-04-30T16:27:49.988Z,0.55
2023-04-30T16:30:16.756Z,2.30
2023-04-30T16:32:44.514Z,0.77
2023-04-30T16:35:11.454Z,1.02
2023-04-30T16:37:38.181Z,0.40
2023-04-30T16:40:06.599Z,1.25
2023-04-30T16:42:34.050Z,0.80
2023-04-30T16:45:00.770Z,0.50
2023-04-30T16:47:27.701Z,0.60
2023-04-30T16:49:55.935Z,0.40
2023-04-30T16:52:22.898Z,0.20
2023-04-30T16:54:49.626Z,0.98
2023-04-30T16:57:16.826Z,0.52
2023-04-30T16:59:43.534Z,0.82
2023-04-30T17:02:10.349Z,0.20
2023-04-30T17:04:37.270Z,0.75
2023-04-30T17:07:04.038Z,0.43
2023-04-30T17:09:31.448Z,0.82
2023-04-30T17:11:58.177Z,0.73
2023-04-30T17:14:24.995Z,1.17
2023-04-30T17:16:51.659Z,0.35
2023-04-30T17:19:18.333Z,1.17
2023-04-30T17:21:45.067Z,0.73
2023-04-30T17:24:11.928Z,0.70
2023-04-30T17:26:38.614Z,0.88
2023-04-30T17:29:06.356Z,0.75
2023-04-30T17:31:33.383Z,0.88
2023-04-30T17:34:02.818Z,0.60
2023-04-30T17:36:30.517Z,1.15
2023-04-30T17:38:57.269Z,0.60
2023-04-30T17:41:24.206Z,0.70
2023-04-30T17:43:51.867Z,0.70
2023-04-30T17:46:18.612Z,0.82
2023-04-30T17:48:45.339Z,1.02
2023-04-30T17:51:12.137Z,1.10
2023-04-30T17:53:38.851Z,0.75
2023-04-30T17:56:05.886Z,0.60
2023-04-30T17:58:32.856Z,0.65
2023-04-30T18:01:01.806Z,1.45
2023-04-30T18:03:28.935Z,1.25
2023-04-30T18:05:55.783Z,0.43
2023-04-30T18:08:22.601Z,0.98
2023-04-30T18:10:49.835Z,0.22
2023-04-30T18:13:16.564Z,0.75
2023-04-30T18:15:43.318Z,0.75
2023-04-30T18:18:10.150Z,1.00
2023-04-30T18:20:37.158Z,0.30
2023-04-30T18:23:05.911Z,1.48
2023-04-30T18:25:34.522Z,1.80
2023-04-30T18:28:01.585Z,0.82
2023-04-30T18:30:28.311Z,1.77
2023-04-30T18:32:55.115Z,0.80
2023-04-30T18:35:22.343Z,0.95
2023-04-30T18:37:49.806Z,0.60
2023-04-30T18:40:17.433Z,0.85
2023-04-30T18:42:44.276Z,0.73
2023-04-30T18:45:11.995Z,0.20
2023-04-30T18:47:38.800Z,1.42
2023-04-30T18:50:07.783Z,1.20
2023-04-30T18:52:34.544Z,1.35
2023-04-30T18:55:01.590Z,2.03
2023-04-30T18:57:28.970Z,0.73
2023-04-30T18:59:56.100Z,1.08
2023-04-30T19:02:23.229Z,0.73
2023-04-30T19:04:50.859Z,0.60
2023-04-30T19:07:17.651Z,0.77
2023-04-30T19:09:45.616Z,1.15
2023-04-30T19:12:12.400Z,1.13
2023-04-30T19:14:39.147Z,0.20
2023-04-30T19:17:06.027Z,0.80
2023-04-30T19:19:33.146Z,1.30
2023-04-30T19:21:59.865Z,0.82
2023-04-30T19:24:26.634Z,1.05
2023-04-30T19:26:53.392Z,1.15
2023-04-30T19:29:20.269Z,0.95
2023-04-30T19:31:47.146Z,1.30
2023-04-30T19:34:16.737Z,0.90
2023-04-30T19:36:44.285Z,1.20
2023-04-30T19:39:11.980Z,0.68
2023-04-30T19:41:39.588Z,3.35
2023-04-30T19:44:07.894Z,1.15
2023-04-30T19:46:35.028Z,0.80
2023-04-30T19:49:01.787Z,1.90
2023-04-30T19:51:28.610Z,1.15
2023-04-30T19:53:55.733Z,1.23
2023-04-30T19:56:22.573Z,1.17
2023-04-30T19:58:50.044Z,0.95
2023-04-30T20:01:17.543Z,1.42
2023-04-30T20:03:44.859Z,0.80
2023-04-30T20:06:12.379Z,0.95
2023-04-30T20:08:39.382Z,2.28
2023-04-30T20:11:06.219Z,1.20
2023-04-30T20:13:33.117Z,2.55
2023-04-30T20:15:59.901Z,1.02
2023-04-30T20:18:26.716Z,0.68
2023-04-30T20:20:53.733Z,2.00
2023-04-30T20:23:20.804Z,0.95
2023-04-30T20:25:48.081Z,0.90
2023-04-30T20:28:16.004Z,0.90
2023-04-30T20:30:43.269Z,1.00
2023-04-30T20:33:13.625Z,0.90
2023-04-30T20:35:41.879Z,0.95
2023-04-30T20:38:08.762Z,0.93
2023-04-30T20:40:35.835Z,1.55
2023-04-30T20:43:02.652Z,0.95
2023-04-30T20:45:30.358Z,3.50
2023-04-30T20:47:57.240Z,1.55
2023-04-30T20:50:24.018Z,1.50
2023-04-30T20:52:50.715Z,2.03
2023-04-30T20:55:17.587Z,1.35
2023-04-30T20:57:44.291Z,1.10
2023-04-30T21:00:12.212Z,1.23
2023-04-30T21:02:39.382Z,0.95
2023-04-30T21:05:06.963Z,2.83
2023-04-30T21:07:37.462Z,4.53
2023-04-30T21:10:08.541Z,1.48
2023-04-30T21:12:35.754Z,1.02
2023-04-30T21:15:03.212Z,0.90
2023-04-30T21:17:30.059Z,1.17
2023-04-30T21:19:57.400Z,1.40
2023-04-30T21:22:24.766Z,1.05
2023-04-30T21:24:54.781Z,0.95
2023-04-30T21:27:21.791Z,4.60
2023-04-30T21:29:48.657Z,1.33
2023-04-30T21:32:15.389Z,1.25
2023-04-30T21:34:42.272Z,1.58
2023-04-30T21:37:09.001Z,1.27
2023-04-30T21:39:35.867Z,0.35
2023-04-30T21:42:04.689Z,1.27
2023-04-30T21:44:32.952Z,0.93
2023-04-30T21:47:00.173Z,1.08
2023-04-30T21:49:27.249Z,1.05
2023-04-30T21:51:54.072Z,1.10
2023-04-30T21:54:20.925Z,1.30
2023-04-30T21:56:48.192Z,4.57
2023-04-30T21:59:14.890Z,1.05
2023-04-30T22:01:41.635Z,1.40
2023-04-30T22:04:08.992Z,0.30
2023-04-30T22:06:35.995Z,1.27
2023-04-30T22:09:02.755Z,1.25
2023-04-30T22:11:29.616Z,1.10
2023-04-30T22:13:56.310Z,1.17
2023-04-30T22:16:23.120Z,1.83
2023-04-30T22:18:49.927Z,0.95
2023-04-30T22:21:16.645Z,0.22
2023-04-30T22:23:43.583Z,0.95
2023-04-30T22:26:11.545Z,1.30
2023-04-30T22:28:38.451Z,0.90
2023-04-30T22:31:05.321Z,0.90
2023-04-30T22:33:36.609Z,1.90
2023-04-30T22:36:06.475Z,0.82
2023-04-30T22:38:33.894Z,1.00
2023-04-30T22:41:01.371Z,1.25
2023-04-30T22:43:30.837Z,1.42
2023-04-30T22:45:58.855Z,0.90
2023-04-30T22:48:27.821Z,1.48
2023-04-30T22:50:55.679Z,0.95
2023-04-30T22:53:22.904Z,1.17
2023-04-30T22:55:50.116Z,1.33
2023-04-30T22:58:17.634Z,0.95
2023-04-30T23:00:44.486Z,1.00
2023-04-30T23:03:11.532Z,0.95
2023-04-30T23:05:38.894Z,1.65
2023-04-30T23:08:05.632Z,1.05
2023-04-30T23:10:32.316Z,0.30
2023-04-30T23:12:59.244Z,4.72
2023-04-30T23:15:26.408Z,1.25
2023-04-30T23:17:54.709Z,1.58
2023-04-30T23:20:23.045Z,1.05
2023-04-30T23:22:50.329Z,1.60
2023-04-30T23:25:17.247Z,1.25
2023-04-30T23:27:45.228Z,1.13
2023-04-30T23:30:12.228Z,1.15
2023-04-30T23:32:39.123Z,3.58
2023-04-30T23:35:07.998Z,1.23
2023-04-30T23:37:35.296Z,1.00
2023-04-30T23:40:02.331Z,1.25
2023-04-30T23:42:29.237Z,1.20
2023-04-30T23:44:55.904Z,2.17
2023-04-30T23:47:22.807Z,2.13
2023-04-30T23:49:49.693Z,1.23
2023-04-30T23:52:16.518Z,1.20
2023-04-30T23:54:43.364Z,3.17
2023-04-30T23:57:10.443Z,1.15
2023-04-30T23:59:37.238Z,4.93
